Time;durP1;ratioP1;P1;durP2;ratioP2;P2;SDS_P1;SDS_P2;PMS_P1;PMS_P2;Temp;Humidity;BMP_temperature;BMP_pressure;BME280_temperature;BME280_humidity;BME280_pressure;Samples;Min_cycle;Max_cycle;Signal;HPM_P1;HPM_P2
2022/03/15 00:01:20;;;;;;;6.53;5.70;;;;;;;;;;5033045;28;20205;-81
2022/03/15 00:03:49;;;;;;;7.57;5.73;;;;;;;;;;5032878;28;20280;-81
2022/03/15 00:06:17;;;;;;;8.47;6.00;;;;;;;;;;5032660;28;20289;-81
2022/03/15 00:08:44;;;;;;;7.73;5.63;;;;;;;;;;5032945;28;20281;-81
2022/03/15 00:11:12;;;;;;;17.10;9.13;;;;;;;;;;5032955;28;20234;-81
2022/03/15 00:13:40;;;;;;;14.20;10.40;;;;;;;;;;5032922;28;20194;-81
2022/03/15 00:16:08;;;;;;;11.50;8.10;;;;;;;;;;5032474;28;20260;-81
2022/03/15 00:18:36;;;;;;;8.23;7.13;;;;;;;;;;5032949;28;20229;-81
2022/03/15 00:21:10;;;;;;;10.10;7.03;;;;;;;;;;5032710;28;20298;-81
2022/03/15 00:23:37;;;;;;;8.53;6.33;;;;;;;;;;5032812;28;20224;-81
2022/03/15 00:26:05;;;;;;;8.30;6.63;;;;;;;;;;5032265;28;20293;-80
2022/03/15 00:28:32;;;;;;;7.50;5.90;;;;;;;;;;5032657;28;20253;-81
2022/03/15 00:30:59;;;;;;;7.00;5.60;;;;;;;;;;5032427;28;20296;-81
2022/03/15 00:33:27;;;;;;;10.27;7.60;;;;;;;;;;5032392;28;20293;-81
2022/03/15 00:35:55;;;;;;;7.57;5.70;;;;;;;;;;5032320;28;20201;-81
2022/03/15 00:38:24;;;;;;;9.47;6.30;;;;;;;;;;5032780;28;20587;-81
2022/03/15 00:40:51;;;;;;;6.90;5.53;;;;;;;;;;5032301;28;20199;-81
2022/03/15 00:43:19;;;;;;;7.63;6.93;;;;;;;;;;5032519;28;20209;-81
2022/03/15 00:45:46;;;;;;;7.37;6.00;;;;;;;;;;5032384;28;20304;-81
2022/03/15 00:48:13;;;;;;;6.47;4.97;;;;;;;;;;5032329;28;20240;-81
2022/03/15 00:50:41;;;;;;;9.33;5.57;;;;;;;;;;5031932;28;20642;-81
2022/03/15 00:53:10;;;;;;;6.63;5.63;;;;;;;;;;5032271;28;20202;-81
2022/03/15 00:55:39;;;;;;;9.33;6.37;;;;;;;;;;5032053;28;20195;-81
2022/03/15 00:58:07;;;;;;;6.33;5.70;;;;;;;;;;5032455;28;20728;-81
2022/03/15 01:00:35;;;;;;;9.57;5.97;;;;;;;;;;5031714;28;20216;-81
2022/03/15 01:03:03;;;;;;;7.47;6.30;;;;;;;;;;5030249;28;20195;-81
2022/03/15 01:05:30;;;;;;;13.50;10.80;;;;;;;;;;5030431;28;20226;-81
2022/03/15 01:07:58;;;;;;;9.40;8.50;;;;;;;;;;5032122;28;20633;-80
2022/03/15 01:10:25;;;;;;;9.90;7.40;;;;;;;;;;5032154;28;20202;-81
2022/03/15 01:12:54;;;;;;;7.37;6.17;;;;;;;;;;5031595;28;20313;-81
2022/03/15 01:15:23;;;;;;;10.03;7.27;;;;;;;;;;5031788;28;20758;-80
2022/03/15 01:17:50;;;;;;;8.67;6.87;;;;;;;;;;5031966;28;20198;-81
2022/03/15 01:20:18;;;;;;;11.80;8.17;;;;;;;;;;5031836;28;20202;-80
2022/03/15 01:22:45;;;;;;;9.17;6.63;;;;;;;;;;5031871;28;20276;-81
2022/03/15 01:25:12;;;;;;;9.07;6.37;;;;;;;;;;5031887;28;20305;-81
2022/03/15 01:27:40;;;;;;;8.70;6.63;;;;;;;;;;5031859;28;20213;-81
2022/03/15 01:30:11;;;;;;;7.77;6.30;;;;;;;;;;5031772;28;20629;-81
2022/03/15 01:32:38;;;;;;;11.87;8.00;;;;;;;;;;5031895;28;20648;-81
2022/03/15 01:35:06;;;;;;;10.47;7.67;;;;;;;;;;5031614;28;20289;-81
2022/03/15 01:37:33;;;;;;;10.43;7.60;;;;;;;;;;5031506;28;20770;-80
2022/03/15 01:40:01;;;;;;;7.23;6.07;;;;;;;;;;5031440;28;20289;-81
2022/03/15 01:42:28;;;;;;;11.17;6.80;;;;;;;;;;5031693;28;20278;-80
2022/03/15 01:44:55;;;;;;;9.30;7.23;;;;;;;;;;5031385;28;20797;-81
2022/03/15 01:47:24;;;;;;;9.70;7.40;;;;;;;;;;5031481;28;20202;-81
2022/03/15 01:49:51;;;;;;;13.13;9.27;;;;;;;;;;5031430;28;20649;-81
2022/03/15 01:52:18;;;;;;;10.57;7.80;;;;;;;;;;5031916;28;20198;-81
2022/03/15 01:54:46;;;;;;;9.47;7.83;;;;;;;;;;5031506;28;20273;-81
2022/03/15 01:57:14;;;;;;;9.50;7.23;;;;;;;;;;5031574;28;20226;-81
2022/03/15 01:59:41;;;;;;;11.67;8.57;;;;;;;;;;5031422;28;20282;-80
2022/03/15 02:02:08;;;;;;;8.13;7.33;;;;;;;;;;5031847;28;20281;-81
2022/03/15 02:04:37;;;;;;;8.87;6.80;;;;;;;;;;5031231;28;20313;-80
2022/03/15 02:07:06;;;;;;;10.23;6.23;;;;;;;;;;5031559;28;20256;-81
2022/03/15 02:09:34;;;;;;;7.60;5.73;;;;;;;;;;5031577;28;20679;-80
2022/03/15 02:12:01;;;;;;;11.03;6.67;;;;;;;;;;5031493;28;20321;-80
2022/03/15 02:14:29;;;;;;;8.07;6.67;;;;;;;;;;5034669;28;20328;-81
2022/03/15 02:16:56;;;;;;;6.73;6.03;;;;;;;;;;5035283;28;20294;-80
2022/03/15 02:19:24;;;;;;;8.40;6.70;;;;;;;;;;5034868;28;20742;-81
2022/03/15 02:21:52;;;;;;;10.03;7.03;;;;;;;;;;5035091;28;20590;-81
2022/03/15 02:24:20;;;;;;;11.77;7.70;;;;;;;;;;5034695;28;20364;-81
2022/03/15 02:26:47;;;;;;;13.90;9.73;;;;;;;;;;5034977;28;20770;-81
2022/03/15 02:29:14;;;;;;;10.77;8.93;;;;;;;;;;5034482;28;20290;-81
2022/03/15 02:31:41;;;;;;;10.47;8.63;;;;;;;;;;5034985;28;20198;-81
2022/03/15 02:34:09;;;;;;;9.97;8.23;;;;;;;;;;5034586;28;20393;-81
2022/03/15 02:36:36;;;;;;;10.23;8.63;;;;;;;;;;5034605;28;20198;-81
2022/03/15 02:39:05;;;;;;;12.07;9.33;;;;;;;;;;5034554;28;20591;-81
2022/03/15 02:41:32;;;;;;;11.07;8.87;;;;;;;;;;5035043;28;20637;-81
2022/03/15 02:43:59;;;;;;;15.47;9.80;;;;;;;;;;5034549;28;20627;-81
2022/03/15 02:46:30;;;;;;;10.93;9.70;;;;;;;;;;5034449;28;20284;-81
2022/03/15 02:48:57;;;;;;;13.97;10.07;;;;;;;;;;5034278;28;20270;-81
2022/03/15 02:51:25;;;;;;;10.03;8.47;;;;;;;;;;5034507;28;20578;-81
2022/03/15 02:53:53;;;;;;;11.03;8.77;;;;;;;;;;5034391;28;20206;-81
2022/03/15 02:56:21;;;;;;;10.43;7.63;;;;;;;;;;5034440;28;20552;-81
2022/03/15 02:58:49;;;;;;;11.37;8.83;;;;;;;;;;5034627;28;20203;-81
2022/03/15 03:01:16;;;;;;;10.23;7.70;;;;;;;;;;5034593;28;20286;-81
2022/03/15 03:03:43;;;;;;;9.60;7.23;;;;;;;;;;5034301;28;20289;-82
2022/03/15 03:06:11;;;;;;;8.20;7.20;;;;;;;;;;5034379;28;20262;-81
2022/03/15 03:08:38;;;;;;;10.27;7.20;;;;;;;;;;5031456;28;20300;-81
2022/03/15 03:11:05;;;;;;;11.40;9.40;;;;;;;;;;5033583;28;20263;-81
2022/03/15 03:13:34;;;;;;;11.70;10.23;;;;;;;;;;5033888;28;20245;-80
2022/03/15 03:16:03;;;;;;;13.20;9.60;;;;;;;;;;5033534;28;20210;-81
2022/03/15 03:18:32;;;;;;;14.00;10.70;;;;;;;;;;5034049;28;20195;-81
2022/03/15 03:21:00;;;;;;;14.13;9.17;;;;;;;;;;5033681;28;20298;-81
2022/03/15 03:23:27;;;;;;;9.73;7.67;;;;;;;;;;5033601;28;20199;-81
2022/03/15 03:25:56;;;;;;;9.53;7.93;;;;;;;;;;5032926;28;20223;-81
2022/03/15 03:28:23;;;;;;;10.87;8.10;;;;;;;;;;5033766;28;20199;-81
2022/03/15 03:30:52;;;;;;;9.73;7.40;;;;;;;;;;5033522;28;20203;-81
2022/03/15 03:33:20;;;;;;;11.17;8.23;;;;;;;;;;5033395;28;20290;-81
2022/03/15 03:35:49;;;;;;;9.67;8.60;;;;;;;;;;5033741;28;20199;-81
2022/03/15 03:38:17;;;;;;;11.20;9.10;;;;;;;;;;5033560;28;20241;-81
2022/03/15 03:40:44;;;;;;;13.70;9.93;;;;;;;;;;5033418;28;20293;-81
2022/03/15 03:43:13;;;;;;;17.87;12.07;;;;;;;;;;5034598;28;20226;-81
2022/03/15 03:45:41;;;;;;;14.57;10.60;;;;;;;;;;5033299;28;20325;-81
2022/03/15 03:48:10;;;;;;;17.63;12.00;;;;;;;;;;5033721;28;20195;-81
2022/03/15 03:50:38;;;;;;;15.47;9.23;;;;;;;;;;5033207;28;20203;-81
2022/03/15 03:53:05;;;;;;;11.70;9.20;;;;;;;;;;5033737;28;20199;-81
2022/03/15 03:55:33;;;;;;;11.73;9.63;;;;;;;;;;5033012;28;20264;-81
2022/03/15 03:58:00;;;;;;;10.87;9.40;;;;;;;;;;5033386;28;20199;-81
2022/03/15 04:00:28;;;;;;;13.17;9.77;;;;;;;;;;5033103;28;20203;-81
2022/03/15 04:02:57;;;;;;;13.13;9.30;;;;;;;;;;5033018;28;20210;-81
2022/03/15 04:05:27;;;;;;;11.67;9.33;;;;;;;;;;5032882;28;20611;-81
2022/03/15 04:07:55;;;;;;;11.87;8.27;;;;;;;;;;5033498;28;20226;-81
2022/03/15 04:10:22;;;;;;;10.07;7.80;;;;;;;;;;5032965;28;20194;-81
2022/03/15 04:12:49;;;;;;;10.03;8.57;;;;;;;;;;5032872;28;20790;-81
2022/03/15 04:15:16;;;;;;;36.33;25.47;;;;;;;;;;5032761;28;20650;-82
2022/03/15 04:17:44;;;;;;;33.43;24.50;;;;;;;;;;5032968;28;20201;-81
2022/03/15 04:20:11;;;;;;;26.37;20.53;;;;;;;;;;5032451;28;20199;-81
2022/03/15 04:22:40;;;;;;;23.83;16.43;;;;;;;;;;5031603;28;20198;-81
2022/03/15 04:25:09;;;;;;;18.07;15.33;;;;;;;;;;5031463;28;20317;-81
2022/03/15 04:27:37;;;;;;;18.83;14.73;;;;;;;;;;5031611;28;20560;-81
2022/03/15 04:30:05;;;;;;;36.60;25.20;;;;;;;;;;5031400;28;20630;-80
2022/03/15 04:32:32;;;;;;;17.23;14.53;;;;;;;;;;5029606;28;20210;-81
2022/03/15 04:35:00;;;;;;;19.87;14.27;;;;;;;;;;5031154;28;20201;-81
2022/03/15 04:37:27;;;;;;;14.50;11.67;;;;;;;;;;5029604;28;20272;-81
2022/03/15 04:39:56;;;;;;;15.03;11.30;;;;;;;;;;5031370;28;20587;-80
2022/03/15 04:42:23;;;;;;;13.63;10.80;;;;;;;;;;5030987;28;20207;-80
2022/03/15 04:44:50;;;;;;;9.27;8.20;;;;;;;;;;5031021;28;20209;-80
2022/03/15 04:47:17;;;;;;;10.37;8.73;;;;;;;;;;5031415;28;20199;-81
2022/03/15 04:49:45;;;;;;;9.53;8.07;;;;;;;;;;5030941;28;20223;-80
2022/03/15 04:52:13;;;;;;;11.10;8.90;;;;;;;;;;5031217;28;20293;-80
2022/03/15 04:54:40;;;;;;;14.03;10.00;;;;;;;;;;5031308;28;20198;-81
2022/03/15 04:57:09;;;;;;;14.77;10.10;;;;;;;;;;5031153;28;20199;-81
2022/03/15 04:59:36;;;;;;;13.70;9.20;;;;;;;;;;5030293;28;20205;-81
2022/03/15 05:02:03;;;;;;;11.27;7.97;;;;;;;;;;5031091;28;20663;-80
2022/03/15 05:04:30;;;;;;;9.20;7.50;;;;;;;;;;5030902;28;20289;-80
2022/03/15 05:06:58;;;;;;;9.77;8.00;;;;;;;;;;5031249;28;20306;-81
2022/03/15 05:09:25;;;;;;;9.60;7.97;;;;;;;;;;5031142;28;20818;-81
2022/03/15 05:11:51;;;;;;;26.70;19.40;;;;;;;;;;5030208;28;20325;-80
2022/03/15 05:14:20;;;;;;;27.80;22.87;;;;;;;;;;5031862;28;20233;-94
2022/03/15 05:16:47;;;;;;;39.13;27.77;;;;;;;;;;5031258;28;20580;-80
2022/03/15 05:19:14;;;;;;;27.37;21.97;;;;;;;;;;5030658;28;20285;-80
2022/03/15 05:21:41;;;;;;;27.60;19.00;;;;;;;;;;5030612;28;20667;-80
2022/03/15 05:24:09;;;;;;;22.03;17.83;;;;;;;;;;5030468;28;20230;-80
2022/03/15 05:26:36;;;;;;;19.97;15.90;;;;;;;;;;5030566;28;20227;-80
2022/03/15 05:29:03;;;;;;;22.17;18.30;;;;;;;;;;5030786;28;20289;-80
2022/03/15 05:31:32;;;;;;;27.13;19.50;;;;;;;;;;5032115;28;20206;-80
2022/03/15 05:33:59;;;;;;;22.23;15.47;;;;;;;;;;5031944;28;20277;-80
2022/03/15 05:36:26;;;;;;;22.53;14.70;;;;;;;;;;5031706;28;20289;-81
2022/03/15 05:38:54;;;;;;;15.60;13.07;;;;;;;;;;5031682;28;20294;-80
2022/03/15 05:41:21;;;;;;;15.43;11.57;;;;;;;;;;5031460;28;20198;-81
2022/03/15 05:43:49;;;;;;;14.87;10.37;;;;;;;;;;5031944;28;20682;-81
2022/03/15 05:46:17;;;;;;;11.73;8.27;;;;;;;;;;5031500;28;20222;-80
2022/03/15 05:48:45;;;;;;;15.23;9.87;;;;;;;;;;5033540;28;20293;-80
2022/03/15 05:51:12;;;;;;;12.77;8.10;;;;;;;;;;5035845;28;20202;-80
2022/03/15 05:53:40;;;;;;;19.33;7.40;;;;;;;;;;5035640;28;20199;-81
2022/03/15 05:56:07;;;;;;;7.57;6.80;;;;;;;;;;5035362;28;20704;-80
2022/03/15 05:58:34;;;;;;;7.93;6.43;;;;;;;;;;5035326;28;20241;-80
2022/03/15 06:01:01;;;;;;;10.97;8.63;;;;;;;;;;5035551;28;20285;-80
2022/03/15 06:03:28;;;;;;;12.23;8.27;;;;;;;;;;5035551;28;20285;-80
2022/03/15 06:05:57;;;;;;;10.00;7.77;;;;;;;;;;5035184;28;20218;-80
2022/03/15 06:08:25;;;;;;;7.40;6.50;;;;;;;;;;5035374;28;20201;-81
2022/03/15 06:10:52;;;;;;;10.57;7.13;;;;;;;;;;5034878;28;20203;-80
2022/03/15 06:13:19;;;;;;;8.60;7.20;;;;;;;;;;5035217;28;20621;-81
2022/03/15 06:15:47;;;;;;;8.57;6.60;;;;;;;;;;5034982;28;20298;-81
2022/03/15 06:18:14;;;;;;;11.37;6.73;;;;;;;;;;5035557;28;20311;-82
2022/03/15 06:20:41;;;;;;;7.67;6.47;;;;;;;;;;5034773;28;20206;-81
2022/03/15 06:23:10;;;;;;;8.00;6.73;;;;;;;;;;5035006;28;20205;-82
2022/03/15 06:25:37;;;;;;;8.17;7.03;;;;;;;;;;5034802;28;20234;-82
2022/03/15 06:28:05;;;;;;;8.97;6.23;;;;;;;;;;5035052;28;20206;-82
2022/03/15 06:30:32;;;;;;;9.07;7.27;;;;;;;;;;5034850;28;20245;-82
2022/03/15 06:32:59;;;;;;;7.70;6.10;;;;;;;;;;5034916;28;20281;-83
2022/03/15 06:35:28;;;;;;;9.60;6.83;;;;;;;;;;5034709;28;20199;-83
2022/03/15 06:37:56;;;;;;;7.07;5.40;;;;;;;;;;5034681;28;20202;-83
2022/03/15 06:40:25;;;;;;;10.07;7.13;;;;;;;;;;5034950;28;20202;-83
2022/03/15 06:42:53;;;;;;;9.27;7.37;;;;;;;;;;5034751;28;20672;-84
2022/03/15 06:45:21;;;;;;;7.50;6.70;;;;;;;;;;5034622;28;20208;-84
2022/03/15 06:47:48;;;;;;;7.50;6.77;;;;;;;;;;5034588;28;20289;-83
2022/03/15 06:50:16;;;;;;;6.53;5.67;;;;;;;;;;5034545;28;20198;-83
2022/03/15 06:52:45;;;;;;;10.10;6.03;;;;;;;;;;5034579;28;20693;-83
2022/03/15 06:55:13;;;;;;;9.53;5.47;;;;;;;;;;5034718;28;20631;-84
2022/03/15 06:57:42;;;;;;;8.57;5.27;;;;;;;;;;5034427;28;20202;-84
2022/03/15 07:00:11;;;;;;;11.70;7.30;;;;;;;;;;5032996;28;20282;-84
2022/03/15 07:02:38;;;;;;;6.77;5.57;;;;;;;;;;5034488;28;20203;-83
2022/03/15 07:05:08;;;;;;;9.27;6.33;;;;;;;;;;5034254;28;20190;-83
2022/03/15 07:07:35;;;;;;;22.10;14.87;;;;;;;;;;5034204;28;20238;-83
2022/03/15 07:10:05;;;;;;;24.60;17.10;;;;;;;;;;5034175;28;20224;-84
2022/03/15 07:12:33;;;;;;;8.03;5.93;;;;;;;;;;5034127;28;20386;-83
2022/03/15 07:15:03;;;;;;;11.27;7.37;;;;;;;;;;5034293;28;20285;-84
2022/03/15 07:17:31;;;;;;;11.17;7.23;;;;;;;;;;5034093;28;20197;-83
2022/03/15 07:19:58;;;;;;;7.27;6.07;;;;;;;;;;5033762;28;20202;-83
2022/03/15 07:22:26;;;;;;;10.40;7.90;;;;;;;;;;5034010;28;20198;-84
2022/03/15 07:24:53;;;;;;;7.20;6.53;;;;;;;;;;5034076;28;20198;-84
2022/03/15 07:27:21;;;;;;;7.97;6.63;;;;;;;;;;5033832;28;20303;-84
2022/03/15 07:29:48;;;;;;;7.50;6.80;;;;;;;;;;5032478;28;20230;-83
2022/03/15 07:32:16;;;;;;;10.67;9.03;;;;;;;;;;5033365;28;20226;-84
2022/03/15 07:34:44;;;;;;;10.30;6.57;;;;;;;;;;5033540;28;20202;-84
2022/03/15 07:37:12;;;;;;;9.10;6.20;;;;;;;;;;5034140;28;20237;-84
2022/03/15 07:39:39;;;;;;;11.27;6.00;;;;;;;;;;5033524;28;20195;-84
2022/03/15 07:42:06;;;;;;;6.20;5.57;;;;;;;;;;5033736;28;20290;-84
2022/03/15 07:44:34;;;;;;;7.67;5.83;;;;;;;;;;5033448;28;20664;-84
2022/03/15 07:47:01;;;;;;;11.47;5.73;;;;;;;;;;5033526;28;20711;-85
2022/03/15 07:49:30;;;;;;;6.23;5.43;;;;;;;;;;5033557;28;20199;-83
2022/03/15 07:51:57;;;;;;;4.57;4.17;;;;;;;;;;5033423;28;20281;-84
2022/03/15 07:54:24;;;;;;;6.57;5.43;;;;;;;;;;5033300;28;20599;-83
2022/03/15 07:56:52;;;;;;;7.83;7.03;;;;;;;;;;5033246;28;20194;-83
2022/03/15 07:59:19;;;;;;;8.70;6.40;;;;;;;;;;5033540;28;20563;-83
2022/03/15 08:01:47;;;;;;;10.80;7.77;;;;;;;;;;5033591;28;20199;-83
2022/03/15 08:04:14;;;;;;;8.00;7.10;;;;;;;;;;5033057;28;20294;-84
2022/03/15 08:06:43;;;;;;;12.30;6.10;;;;;;;;;;5032886;28;20226;-84
2022/03/15 08:09:10;;;;;;;6.40;5.80;;;;;;;;;;5032984;28;20889;-84
2022/03/15 08:11:38;;;;;;;9.87;8.40;;;;;;;;;;5032690;28;20230;-83
2022/03/15 08:14:07;;;;;;;9.53;7.70;;;;;;;;;;5033247;28;20750;-84
2022/03/15 08:16:34;;;;;;;6.10;5.50;;;;;;;;;;5032955;28;20568;-84
2022/03/15 08:19:01;;;;;;;8.70;5.20;;;;;;;;;;5032857;28;20198;-84
2022/03/15 08:21:29;;;;;;;7.20;5.17;;;;;;;;;;5033076;28;20199;-84
2022/03/15 08:23:57;;;;;;;6.40;4.77;;;;;;;;;;5032589;28;20390;-84
2022/03/15 08:26:26;;;;;;;6.30;4.73;;;;;;;;;;5033041;28;20230;-84
2022/03/15 08:28:53;;;;;;;7.77;5.43;;;;;;;;;;5033028;28;20207;-83
2022/03/15 08:31:20;;;;;;;7.63;4.83;;;;;;;;;;5033016;28;20209;-84
2022/03/15 08:33:48;;;;;;;7.40;5.57;;;;;;;;;;5032620;28;20241;-84
2022/03/15 08:36:15;;;;;;;8.67;4.63;;;;;;;;;;5032309;28;20241;-84
2022/03/15 08:38:43;;;;;;;4.40;3.83;;;;;;;;;;5032908;28;20222;-84
2022/03/15 08:41:11;;;;;;;7.27;5.57;;;;;;;;;;5032330;28;20206;-84
2022/03/15 08:43:39;;;;;;;6.43;5.17;;;;;;;;;;5032194;28;20289;-84
2022/03/15 08:46:06;;;;;;;4.57;4.17;;;;;;;;;;5032227;28;20191;-84
2022/03/15 08:48:34;;;;;;;6.53;5.23;;;;;;;;;;5032407;28;20285;-84
2022/03/15 08:51:02;;;;;;;5.90;4.97;;;;;;;;;;5032170;28;20282;-84
2022/03/15 08:53:29;;;;;;;5.23;4.63;;;;;;;;;;5032178;28;20199;-84
2022/03/15 08:55:56;;;;;;;5.00;4.50;;;;;;;;;;5032058;28;20293;-84
2022/03/15 08:58:25;;;;;;;5.87;4.53;;;;;;;;;;5032332;28;20191;-84
2022/03/15 09:00:52;;;;;;;9.73;5.60;;;;;;;;;;5032202;28;20289;-84
2022/03/15 09:03:22;;;;;;;9.90;7.57;;;;;;;;;;5032233;28;20633;-84
2022/03/15 09:05:49;;;;;;;6.63;5.13;;;;;;;;;;5032296;28;20217;-84
2022/03/15 09:08:16;;;;;;;7.20;6.50;;;;;;;;;;5032020;28;20219;-84
2022/03/15 09:10:44;;;;;;;6.27;5.60;;;;;;;;;;5031846;28;20301;-84
2022/03/15 09:13:12;;;;;;;7.60;6.73;;;;;;;;;;5031960;28;20284;-85
2022/03/15 09:15:41;;;;;;;8.23;7.43;;;;;;;;;;5031873;28;20289;-85
2022/03/15 09:18:08;;;;;;;10.60;9.50;;;;;;;;;;5031979;28;20584;-85
2022/03/15 09:20:36;;;;;;;9.80;6.77;;;;;;;;;;5031896;28;20663;-85
2022/03/15 09:23:03;;;;;;;11.43;8.60;;;;;;;;;;5031419;28;20199;-84
2022/03/15 09:25:32;;;;;;;7.30;6.20;;;;;;;;;;5031684;28;20200;-84
2022/03/15 09:27:59;;;;;;;7.57;6.27;;;;;;;;;;5031857;28;20240;-84
2022/03/15 09:30:30;;;;;;;12.63;8.20;;;;;;;;;;5031788;28;20208;-85
2022/03/15 09:32:59;;;;;;;8.00;7.20;;;;;;;;;;5031820;28;20189;-85
2022/03/15 09:35:26;;;;;;;25.07;16.77;;;;;;;;;;5032094;28;20206;-85
2022/03/15 09:37:54;;;;;;;9.10;7.90;;;;;;;;;;5031523;28;20232;-85
2022/03/15 09:40:23;;;;;;;8.00;6.57;;;;;;;;;;5031564;28;20260;-85
2022/03/15 09:42:52;;;;;;;8.20;5.90;;;;;;;;;;5031858;28;20256;-85
2022/03/15 09:45:24;;;;;;;8.60;6.77;;;;;;;;;;5031541;28;20194;-85
2022/03/15 09:47:56;;;;;;;7.53;6.00;;;;;;;;;;5031550;28;20206;-85
2022/03/15 09:50:25;;;;;;;5.93;5.33;;;;;;;;;;5031714;28;20194;-85
2022/03/15 09:52:55;;;;;;;8.03;6.23;;;;;;;;;;5031658;28;20285;-85
2022/03/15 09:55:22;;;;;;;8.73;6.63;;;;;;;;;;5031693;28;20615;-85
2022/03/15 09:57:49;;;;;;;9.70;6.00;;;;;;;;;;5031984;28;20194;-85
2022/03/15 10:00:17;;;;;;;14.40;6.80;;;;;;;;;;5031643;28;20238;-85
2022/03/15 10:02:45;;;;;;;10.97;7.37;;;;;;;;;;5031396;28;20286;-85
2022/03/15 10:05:13;;;;;;;37.83;22.93;;;;;;;;;;5031438;28;20198;-85
2022/03/15 10:07:42;;;;;;;12.10;9.17;;;;;;;;;;5031426;28;20225;-85
2022/03/15 10:10:12;;;;;;;10.63;8.03;;;;;;;;;;5031329;28;20298;-85
2022/03/15 10:12:39;;;;;;;14.43;8.97;;;;;;;;;;5031136;28;20317;-85
2022/03/15 10:15:15;;;;;;;8.87;7.90;;;;;;;;;;5031620;28;20584;-85
2022/03/15 10:17:47;;;;;;;7.47;6.70;;;;;;;;;;5031757;28;20634;-85
2022/03/15 10:20:16;;;;;;;8.80;7.87;;;;;;;;;;5031326;28;20655;-85
2022/03/15 10:22:53;;;;;;;9.57;8.13;;;;;;;;;;5031739;28;20198;-85
2022/03/15 10:25:22;;;;;;;8.07;6.40;;;;;;;;;;5031150;28;20182;-85
2022/03/15 10:27:54;;;;;;;8.30;6.97;;;;;;;;;;5031337;28;20226;-84
2022/03/15 10:30:22;;;;;;;8.20;7.27;;;;;;;;;;5031478;28;20199;-85
2022/03/15 10:32:50;;;;;;;7.40;6.70;;;;;;;;;;5031503;28;20225;-85
2022/03/15 10:35:21;;;;;;;7.73;6.03;;;;;;;;;;5033934;28;20210;-85
2022/03/15 10:37:49;;;;;;;12.73;10.67;;;;;;;;;;5035138;28;20215;-85
2022/03/15 10:40:19;;;;;;;7.97;6.27;;;;;;;;;;5035190;28;20716;-85
2022/03/15 10:42:47;;;;;;;8.27;5.90;;;;;;;;;;5034991;28;20694;-85
2022/03/15 10:45:19;;;;;;;9.80;6.70;;;;;;;;;;5034676;28;20194;-85
2022/03/15 10:47:51;;;;;;;8.10;6.17;;;;;;;;;;5034800;28;20281;-85
2022/03/15 10:50:18;;;;;;;8.47;6.37;;;;;;;;;;5034733;28;20272;-85
2022/03/15 10:52:46;;;;;;;8.87;6.50;;;;;;;;;;5034795;28;20199;-85
2022/03/15 10:55:16;;;;;;;8.57;6.33;;;;;;;;;;5034742;28;20278;-85
2022/03/15 10:57:52;;;;;;;10.87;7.80;;;;;;;;;;5034420;28;20286;-85
2022/03/15 11:00:22;;;;;;;11.73;8.03;;;;;;;;;;5034402;28;20187;-85
2022/03/15 11:02:51;;;;;;;6.03;5.07;;;;;;;;;;5034501;28;20297;-85
2022/03/15 11:05:29;;;;;;;6.73;6.03;;;;;;;;;;5034079;28;20671;-85
2022/03/15 11:07:57;;;;;;;7.73;5.77;;;;;;;;;;5034607;28;20300;-85
2022/03/15 11:10:24;;;;;;;6.67;4.77;;;;;;;;;;5034482;28;20223;-85
2022/03/15 11:12:58;;;;;;;6.87;6.17;;;;;;;;;;5034009;28;20236;-85
2022/03/15 11:15:30;;;;;;;6.23;5.63;;;;;;;;;;5034562;28;20183;-85
2022/03/15 11:17:59;;;;;;;6.40;5.70;;;;;;;;;;5034198;28;20193;-85
2022/03/15 11:20:27;;;;;;;6.43;5.73;;;;;;;;;;5034082;28;20257;-85
2022/03/15 11:23:00;;;;;;;6.47;5.80;;;;;;;;;;5033977;28;20208;-85
2022/03/15 11:25:33;;;;;;;9.23;6.00;;;;;;;;;;5033922;28;20203;-85
2022/03/15 11:28:02;;;;;;;8.53;5.60;;;;;;;;;;5033996;28;20206;-85
2022/03/15 11:30:30;;;;;;;17.43;11.10;;;;;;;;;;5033678;28;20193;-85
2022/03/15 11:32:58;;;;;;;10.80;9.63;;;;;;;;;;5033903;28;20194;-85
2022/03/15 11:35:25;;;;;;;10.37;6.73;;;;;;;;;;5033792;28;20195;-85
2022/03/15 11:37:53;;;;;;;8.97;7.30;;;;;;;;;;5033950;28;20225;-85
2022/03/15 11:40:21;;;;;;;11.07;9.13;;;;;;;;;;5033441;28;20191;-85
2022/03/15 11:42:50;;;;;;;9.63;8.63;;;;;;;;;;5033796;28;20205;-85
2022/03/15 11:45:24;;;;;;;11.30;8.80;;;;;;;;;;5033299;28;20202;-85
2022/03/15 11:48:00;;;;;;;7.80;6.07;;;;;;;;;;5033487;28;20742;-85
2022/03/15 11:50:35;;;;;;;16.93;13.80;;;;;;;;;;5033500;28;20269;-85
2022/03/15 11:53:07;;;;;;;8.10;6.53;;;;;;;;;;5033638;28;20190;-85
2022/03/15 11:55:40;;;;;;;8.10;7.23;;;;;;;;;;5033464;28;20192;-85
2022/03/15 11:58:09;;;;;;;16.13;11.30;;;;;;;;;;5033475;28;20223;-85
2022/03/15 12:00:42;;;;;;;8.57;7.00;;;;;;;;;;5033070;28;20675;-85
2022/03/15 12:03:10;;;;;;;10.90;9.03;;;;;;;;;;5033703;28;20191;-85
2022/03/15 12:05:45;;;;;;;13.43;10.63;;;;;;;;;;5033446;28;20220;-85
2022/03/15 12:08:16;;;;;;;19.90;14.27;;;;;;;;;;5033541;28;20222;-85
2022/03/15 12:10:54;;;;;;;9.43;8.30;;;;;;;;;;5033211;28;20620;-85
2022/03/15 12:13:23;;;;;;;21.33;16.00;;;;;;;;;;5032989;28;20238;-85
2022/03/15 12:15:52;;;;;;;29.00;18.90;;;;;;;;;;5033217;28;20209;-84
2022/03/15 12:18:28;;;;;;;11.43;8.33;;;;;;;;;;5032859;28;20297;-85
2022/03/15 12:21:03;;;;;;;13.33;10.23;;;;;;;;;;5033239;28;20564;-85
2022/03/15 12:23:40;;;;;;;17.20;12.17;;;;;;;;;;5033361;28;20575;-85
2022/03/15 12:26:18;;;;;;;12.60;11.27;;;;;;;;;;5032814;28;20187;-85
2022/03/15 12:28:56;;;;;;;8.53;6.73;;;;;;;;;;5032651;28;20756;-85
2022/03/15 12:31:33;;;;;;;11.43;9.00;;;;;;;;;;5032764;28;20244;-85
2022/03/15 12:34:04;;;;;;;19.37;15.47;;;;;;;;;;5033014;28;20218;-85
2022/03/15 12:36:39;;;;;;;11.10;8.67;;;;;;;;;;5032354;28;20243;-85
2022/03/15 12:39:11;;;;;;;17.23;13.30;;;;;;;;;;5032833;28;20580;-84
2022/03/15 12:41:39;;;;;;;8.00;5.50;;;;;;;;;;5032907;28;20206;-85
2022/03/15 12:44:07;;;;;;;7.63;6.87;;;;;;;;;;5032692;28;20203;-85
2022/03/15 12:46:36;;;;;;;15.60;12.83;;;;;;;;;;5032370;28;20199;-85
2022/03/15 12:49:07;;;;;;;16.33;12.83;;;;;;;;;;5032263;28;20227;-85
2022/03/15 12:51:42;;;;;;;15.50;12.97;;;;;;;;;;5032533;28;20201;-85
2022/03/15 12:54:11;;;;;;;16.43;13.40;;;;;;;;;;5032117;28;20206;-85
2022/03/15 12:56:46;;;;;;;9.40;7.97;;;;;;;;;;5032371;28;20203;-85
2022/03/15 12:59:21;;;;;;;14.07;12.57;;;;;;;;;;5031587;28;20210;-85
2022/03/15 13:01:50;;;;;;;25.20;17.47;;;;;;;;;;5032672;28;20183;-85
2022/03/15 13:04:18;;;;;;;34.40;24.53;;;;;;;;;;5032233;28;20234;-85
2022/03/15 13:06:47;;;;;;;26.00;18.23;;;;;;;;;;5032346;28;20580;-85
2022/03/15 13:09:24;;;;;;;10.37;7.27;;;;;;;;;;5032352;28;20226;-85
2022/03/15 13:11:53;;;;;;;9.47;6.57;;;;;;;;;;5032201;28;20649;-85
2022/03/15 13:14:23;;;;;;;17.03;11.60;;;;;;;;;;5031712;28;20205;-85
2022/03/15 13:16:52;;;;;;;6.53;5.23;;;;;;;;;;5032219;28;20190;-85
2022/03/15 13:19:27;;;;;;;6.77;5.60;;;;;;;;;;5032273;28;20206;-85
2022/03/15 13:21:55;;;;;;;15.17;12.23;;;;;;;;;;5032386;28;20611;-85
2022/03/15 13:24:24;;;;;;;30.60;21.83;;;;;;;;;;5031693;28;20209;-85
2022/03/15 13:26:56;;;;;;;17.70;12.30;;;;;;;;;;5031990;28;20749;-86
2022/03/15 13:29:27;;;;;;;15.47;10.40;;;;;;;;;;5031823;28;20207;-85
2022/03/15 13:31:56;;;;;;;32.87;20.50;;;;;;;;;;5031839;28;20199;-85
2022/03/15 13:34:24;;;;;;;7.77;5.93;;;;;;;;;;5031746;28;20194;-85
2022/03/15 13:36:52;;;;;;;4.97;4.47;;;;;;;;;;5031965;28;20202;-85
2022/03/15 13:39:23;;;;;;;7.33;4.63;;;;;;;;;;5031639;28;20301;-85
2022/03/15 13:41:52;;;;;;;9.43;4.93;;;;;;;;;;5031615;28;20241;-85
2022/03/15 13:44:22;;;;;;;12.93;10.77;;;;;;;;;;5031888;28;20650;-85
2022/03/15 13:46:51;;;;;;;13.07;7.70;;;;;;;;;;5031720;28;20272;-86
2022/03/15 13:49:21;;;;;;;11.07;9.33;;;;;;;;;;5031846;28;20280;-85
2022/03/15 13:51:49;;;;;;;7.17;6.53;;;;;;;;;;5031678;28;20651;-85
2022/03/15 13:54:19;;;;;;;10.60;8.57;;;;;;;;;;5031784;28;20612;-85
2022/03/15 13:56:50;;;;;;;7.67;6.30;;;;;;;;;;5031971;28;20675;-85
2022/03/15 13:59:18;;;;;;;10.00;7.03;;;;;;;;;;5031559;28;20197;-85
2022/03/15 14:01:48;;;;;;;9.40;8.43;;;;;;;;;;5031435;28;20205;-85
2022/03/15 14:04:17;;;;;;;12.30;11.00;;;;;;;;;;5031560;28;20289;-85
2022/03/15 14:06:46;;;;;;;6.13;5.53;;;;;;;;;;5031612;28;20293;-85
2022/03/15 14:09:25;;;;;;;14.60;8.67;;;;;;;;;;5032327;28;20226;-85
2022/03/15 14:12:08;;;;;;;6.17;5.57;;;;;;;;;;5035214;28;20317;-85
2022/03/15 14:14:40;;;;;;;24.97;11.90;;;;;;;;;;5035308;28;20194;-85
2022/03/15 14:17:08;;;;;;;66.90;36.57;;;;;;;;;;5035886;28;20202;-85
2022/03/15 14:19:47;;;;;;;13.53;9.80;;;;;;;;;;5035154;28;20203;-85
2022/03/15 14:22:19;;;;;;;34.13;24.60;;;;;;;;;;5035552;28;20270;-86
2022/03/15 14:24:46;;;;;;;34.10;26.07;;;;;;;;;;5035137;28;20225;-84
2022/03/15 14:27:14;;;;;;;27.43;21.23;;;;;;;;;;5035154;28;20201;-85
2022/03/15 14:29:49;;;;;;;14.43;11.13;;;;;;;;;;5035133;28;20231;-85
2022/03/15 14:32:16;;;;;;;22.10;17.20;;;;;;;;;;5035393;28;20190;-85
2022/03/15 14:35:02;;;;;;;20.30;17.73;;;;;;;;;;5035198;28;20202;-85
2022/03/15 14:37:31;;;;;;;16.90;12.93;;;;;;;;;;5034898;28;20195;-85
2022/03/15 14:40:04;;;;;;;13.37;7.90;;;;;;;;;;5034730;28;20740;-85
2022/03/15 14:42:32;;;;;;;12.70;7.17;;;;;;;;;;5035234;28;20256;-85